sensor_id;sensor_type;location;lat;lon;timestamp;pressure;altitude;pressure_sealevel;temperature;humidity
48862;BME280;34681;49.188;-0.374;2023-03-15T00:01:24;101456.44;;;9.21;59.89
48862;BME280;34681;49.188;-0.374;2023-03-15T00:03:51;101455.56;;;9.21;59.87
48862;BME280;34681;49.188;-0.374;2023-03-15T00:06:19;101459.78;;;9.25;59.66
48862;BME280;34681;49.188;-0.374;2023-03-15T00:08:45;101462.38;;;9.15;60.33
48862;BME280;34681;49.188;-0.374;2023-03-15T00:11:12;101463.63;;;9.11;60.35
48862;BME280;34681;49.188;-0.374;2023-03-15T00:13:38;101466.22;;;9.24;60.26
48862;BME280;34681;49.188;-0.374;2023-03-15T00:16:04;101469.84;;;9.24;60.20
48862;BME280;34681;49.188;-0.374;2023-03-15T00:18:30;101464.25;;;9.26;60.08
48862;BME280;34681;49.188;-0.374;2023-03-15T00:20:55;101470.69;;;9.25;60.31
48862;BME280;34681;49.188;-0.374;2023-03-15T00:23:21;101466.97;;;9.26;60.43
48862;BME280;34681;49.188;-0.374;2023-03-15T00:25:47;101466.88;;;9.27;60.41
48862;BME280;34681;49.188;-0.374;2023-03-15T00:28:14;101465.13;;;9.26;60.45
48862;BME280;34681;49.188;-0.374;2023-03-15T00:30:39;101462.63;;;9.23;60.52
48862;BME280;34681;49.188;-0.374;2023-03-15T00:33:05;101462.63;;;9.23;60.80
48862;BME280;34681;49.188;-0.374;2023-03-15T00:35:31;101459.66;;;9.26;60.87
48862;BME280;34681;49.188;-0.374;2023-03-15T00:37:58;101456.06;;;9.26;60.93
48862;BME280;34681;49.188;-0.374;2023-03-15T00:40:24;101463.38;;;9.25;61.09
48862;BME280;34681;49.188;-0.374;2023-03-15T00:42:50;101467.75;;;9.28;60.88
48862;BME280;34681;49.188;-0.374;2023-03-15T00:45:20;101466.88;;;9.27;61.21
48862;BME280;34681;49.188;-0.374;2023-03-15T00:47:52;101466.88;;;9.27;61.01
48862;BME280;34681;49.188;-0.374;2023-03-15T00:50:18;101470.56;;;9.26;60.90
48862;BME280;34681;49.188;-0.374;2023-03-15T00:52:44;101468.63;;;9.28;61.03
48862;BME280;34681;49.188;-0.374;2023-03-15T00:55:15;101474.31;;;9.25;61.27
48862;BME280;34681;49.188;-0.374;2023-03-15T00:57:42;101474.22;;;9.27;61.14
48862;BME280;34681;49.188;-0.374;2023-03-15T01:00:14;101469.50;;;9.29;60.95
48862;BME280;34681;49.188;-0.374;2023-03-15T01:02:40;101480.75;;;9.24;61.03
48862;BME280;34681;49.188;-0.374;2023-03-15T01:05:08;101475.28;;;9.24;61.06
48862;BME280;34681;49.188;-0.374;2023-03-15T01:07:33;101481.00;;;9.21;60.96
48862;BME280;34681;49.188;-0.374;2023-03-15T01:10:00;101469.09;;;9.22;61.00
48862;BME280;34681;49.188;-0.374;2023-03-15T01:12:27;101471.09;;;9.20;60.95
48862;BME280;34681;49.188;-0.374;2023-03-15T01:14:53;101469.94;;;9.12;61.02
48862;BME280;34681;49.188;-0.374;2023-03-15T01:17:18;101472.53;;;9.13;61.09
48862;BME280;34681;49.188;-0.374;2023-03-15T01:19:43;101470.06;;;9.10;61.05
48862;BME280;34681;49.188;-0.374;2023-03-15T01:22:09;101474.00;;;9.06;61.17
48862;BME280;34681;49.188;-0.374;2023-03-15T01:24:34;101477.59;;;9.07;61.37
48862;BME280;34681;49.188;-0.374;2023-03-15T01:26:59;101487.91;;;9.03;61.41
48862;BME280;34681;49.188;-0.374;2023-03-15T01:29:25;101486.78;;;9.06;61.09
48862;BME280;34681;49.188;-0.374;2023-03-15T01:31:50;101486.06;;;9.04;61.31
48862;BME280;34681;49.188;-0.374;2023-03-15T01:34:15;101483.53;;;9.00;61.71
48862;BME280;34681;49.188;-0.374;2023-03-15T01:36:41;101478.84;;;9.03;61.46
48862;BME280;34681;49.188;-0.374;2023-03-15T01:39:06;101484.66;;;8.98;61.80
48862;BME280;34681;49.188;-0.374;2023-03-15T01:41:31;101480.66;;;8.91;61.92
48862;BME280;34681;49.188;-0.374;2023-03-15T01:43:57;101472.72;;;8.88;61.98
48862;BME280;34681;49.188;-0.374;2023-03-15T01:46:30;101485.66;;;8.97;61.93
48862;BME280;34681;49.188;-0.374;2023-03-15T01:49:04;101479.31;;;8.96;61.82
48862;BME280;34681;49.188;-0.374;2023-03-15T01:51:35;101484.03;;;8.94;61.76
48862;BME280;34681;49.188;-0.374;2023-03-15T01:54:43;101489.88;;;9.01;61.73
48862;BME280;34681;49.188;-0.374;2023-03-15T01:57:19;101487.13;;;9.01;62.07
48862;BME280;34681;49.188;-0.374;2023-03-15T02:00:03;101472.41;;;9.04;62.08
48862;BME280;34681;49.188;-0.374;2023-03-15T02:02:35;101475.47;;;8.99;62.58
48862;BME280;34681;49.188;-0.374;2023-03-15T02:05:08;101472.16;;;9.07;62.45
48862;BME280;34681;49.188;-0.374;2023-03-15T02:07:37;101472.88;;;9.09;62.24
48862;BME280;34681;49.188;-0.374;2023-03-15T02:10:07;101470.41;;;9.06;62.58
48862;BME280;34681;49.188;-0.374;2023-03-15T02:12:37;101481.84;;;9.11;62.23
48862;BME280;34681;49.188;-0.374;2023-03-15T02:15:05;101481.59;;;9.14;62.27
48862;BME280;34681;49.188;-0.374;2023-03-15T02:17:37;101480.59;;;9.15;62.71
48862;BME280;34681;49.188;-0.374;2023-03-15T02:22:46;101485.06;;;9.05;63.08
48862;BME280;34681;49.188;-0.374;2023-03-15T02:28:18;101481.59;;;9.03;63.07
48862;BME280;34681;49.188;-0.374;2023-03-15T02:30:44;101487.44;;;8.85;63.69
48862;BME280;34681;49.188;-0.374;2023-03-15T02:33:21;101485.78;;;8.95;63.59
48862;BME280;34681;49.188;-0.374;2023-03-15T02:35:48;101491.66;;;9.13;63.03
48862;BME280;34681;49.188;-0.374;2023-03-15T02:38:14;101487.31;;;9.11;62.85
48862;BME280;34681;49.188;-0.374;2023-03-15T02:40:39;101482.59;;;9.13;63.05
48862;BME280;34681;49.188;-0.374;2023-03-15T02:43:09;101477.84;;;9.04;63.65
48862;BME280;34681;49.188;-0.374;2023-03-15T02:45:37;101485.69;;;9.08;63.58
48862;BME280;34681;49.188;-0.374;2023-03-15T02:48:04;101487.69;;;9.17;63.28
48862;BME280;34681;49.188;-0.374;2023-03-15T02:50:30;101489.00;;;9.00;63.57
48862;BME280;34681;49.188;-0.374;2023-03-15T02:52:56;101493.06;;;9.19;63.31
48862;BME280;34681;49.188;-0.374;2023-03-15T02:55:22;101491.50;;;9.04;63.39
48862;BME280;34681;49.188;-0.374;2023-03-15T02:57:48;101482.69;;;8.76;64.35
48862;BME280;34681;49.188;-0.374;2023-03-15T03:00:13;101484.41;;;9.01;63.96
48862;BME280;34681;49.188;-0.374;2023-03-15T03:02:46;101486.94;;;9.15;63.56
48862;BME280;34681;49.188;-0.374;2023-03-15T03:05:13;101484.84;;;9.19;63.42
48862;BME280;34681;49.188;-0.374;2023-03-15T03:07:39;101483.00;;;9.19;63.21
48862;BME280;34681;49.188;-0.374;2023-03-15T03:10:08;101483.34;;;9.26;63.33
48862;BME280;34681;49.188;-0.374;2023-03-15T03:12:34;101482.41;;;9.27;63.00
48862;BME280;34681;49.188;-0.374;2023-03-15T03:15:00;101474.81;;;9.31;62.98
48862;BME280;34681;49.188;-0.374;2023-03-15T03:17:26;101483.28;;;9.27;63.20
48862;BME280;34681;49.188;-0.374;2023-03-15T03:19:52;101469.34;;;9.31;62.91
48862;BME280;34681;49.188;-0.374;2023-03-15T03:22:17;101467.63;;;9.29;63.01
48862;BME280;34681;49.188;-0.374;2023-03-15T03:24:42;101476.44;;;9.33;62.95
48862;BME280;34681;49.188;-0.374;2023-03-15T03:27:11;101476.44;;;9.33;62.76
48862;BME280;34681;49.188;-0.374;2023-03-15T03:29:39;101488.34;;;9.21;63.53
48862;BME280;34681;49.188;-0.374;2023-03-15T03:32:05;101484.13;;;9.28;63.32
48862;BME280;34681;49.188;-0.374;2023-03-15T03:34:31;101486.25;;;9.36;63.14
48862;BME280;34681;49.188;-0.374;2023-03-15T03:36:56;101496.31;;;9.35;63.43
48862;BME280;34681;49.188;-0.374;2023-03-15T03:39:22;101486.50;;;9.33;63.31
48862;BME280;34681;49.188;-0.374;2023-03-15T03:41:47;101501.00;;;9.33;63.18
48862;BME280;34681;49.188;-0.374;2023-03-15T03:44:14;101499.25;;;9.21;63.63
48862;BME280;34681;49.188;-0.374;2023-03-15T03:46:39;101482.16;;;9.30;63.11
48862;BME280;34681;49.188;-0.374;2023-03-15T03:49:04;101489.47;;;9.29;63.18
48862;BME280;34681;49.188;-0.374;2023-03-15T03:51:30;101493.94;;;9.31;63.13
48862;BME280;34681;49.188;-0.374;2023-03-15T03:53:58;101491.06;;;9.21;63.55
48862;BME280;34681;49.188;-0.374;2023-03-15T03:56:23;101485.34;;;9.24;63.19
48862;BME280;34681;49.188;-0.374;2023-03-15T03:58:49;101483.28;;;9.27;62.90
48862;BME280;34681;49.188;-0.374;2023-03-15T04:01:15;101475.53;;;9.21;63.08
48862;BME280;34681;49.188;-0.374;2023-03-15T04:03:40;101481.41;;;9.28;63.15
48862;BME280;34681;49.188;-0.374;2023-03-15T04:06:06;101478.28;;;9.21;63.33
48862;BME280;34681;49.188;-0.374;2023-03-15T04:08:31;101478.28;;;9.21;63.19
48862;BME280;34681;49.188;-0.374;2023-03-15T04:10:56;101488.09;;;9.24;63.18
48862;BME280;34681;49.188;-0.374;2023-03-15T04:13:23;101474.53;;;9.11;63.62
48862;BME280;34681;49.188;-0.374;2023-03-15T04:15:50;101490.81;;;9.24;63.27
48862;BME280;34681;49.188;-0.374;2023-03-15T04:18:16;101481.13;;;9.20;63.45
48862;BME280;34681;49.188;-0.374;2023-03-15T04:20:42;101474.28;;;9.14;63.48
48862;BME280;34681;49.188;-0.374;2023-03-15T04:23:12;101496.38;;;9.11;63.84
48862;BME280;34681;49.188;-0.374;2023-03-15T04:25:37;101486.47;;;9.21;62.98
48862;BME280;34681;49.188;-0.374;2023-03-15T04:28:03;101484.22;;;9.15;63.39
48862;BME280;34681;49.188;-0.374;2023-03-15T04:30:28;101479.41;;;9.19;63.28
48862;BME280;34681;49.188;-0.374;2023-03-15T04:32:56;101483.63;;;9.23;63.00
48862;BME280;34681;49.188;-0.374;2023-03-15T04:35:37;101485.06;;;9.16;63.47
48862;BME280;34681;49.188;-0.374;2023-03-15T04:38:06;101487.69;;;9.17;63.39
48862;BME280;34681;49.188;-0.374;2023-03-15T04:40:32;101493.28;;;9.16;63.78
48862;BME280;34681;49.188;-0.374;2023-03-15T04:43:02;101512.38;;;8.81;64.20
48862;BME280;34681;49.188;-0.374;2023-03-15T04:45:29;101507.38;;;8.51;65.70
48862;BME280;34681;49.188;-0.374;2023-03-15T04:47:56;101499.88;;;8.89;64.67
48862;BME280;34681;49.188;-0.374;2023-03-15T04:50:23;101512.41;;;8.68;64.94
48862;BME280;34681;49.188;-0.374;2023-03-15T04:52:48;101511.53;;;8.67;65.41
48862;BME280;34681;49.188;-0.374;2023-03-15T04:55:14;101522.00;;;8.97;64.98
48862;BME280;34681;49.188;-0.374;2023-03-15T04:57:39;101515.13;;;8.92;65.25
48862;BME280;34681;49.188;-0.374;2023-03-15T05:00:06;101521.72;;;8.65;66.61
48862;BME280;34681;49.188;-0.374;2023-03-15T05:02:33;101514.22;;;8.80;66.69
48862;BME280;34681;49.188;-0.374;2023-03-15T05:04:59;101511.03;;;9.10;66.07
48862;BME280;34681;49.188;-0.374;2023-03-15T05:07:25;101513.94;;;9.31;65.51
48862;BME280;34681;49.188;-0.374;2023-03-15T05:09:50;101506.00;;;9.39;65.52
48862;BME280;34681;49.188;-0.374;2023-03-15T05:12:16;101509.88;;;9.59;64.90
48862;BME280;34681;49.188;-0.374;2023-03-15T05:14:41;101505.44;;;9.69;64.50
48862;BME280;34681;49.188;-0.374;2023-03-15T05:17:06;101516.13;;;9.72;64.72
48862;BME280;34681;49.188;-0.374;2023-03-15T05:19:32;101524.69;;;9.79;64.61
48862;BME280;34681;49.188;-0.374;2023-03-15T05:21:59;101518.84;;;9.72;64.75
48862;BME280;34681;49.188;-0.374;2023-03-15T05:24:24;101524.94;;;9.76;65.18
48862;BME280;34681;49.188;-0.374;2023-03-15T05:26:50;101530.78;;;9.71;65.23
48862;BME280;34681;49.188;-0.374;2023-03-15T05:29:19;101518.72;;;9.74;65.23
48862;BME280;34681;49.188;-0.374;2023-03-15T05:31:45;101516.63;;;9.77;65.05
48862;BME280;34681;49.188;-0.374;2023-03-15T05:34:11;101512.16;;;9.76;65.23
48862;BME280;34681;49.188;-0.374;2023-03-15T05:36:36;101513.75;;;9.68;65.47
48862;BME280;34681;49.188;-0.374;2023-03-15T05:39:01;101519.38;;;9.77;65.41
48862;BME280;34681;49.188;-0.374;2023-03-15T05:41:27;101521.31;;;9.75;65.49
48862;BME280;34681;49.188;-0.374;2023-03-15T05:43:52;101525.69;;;9.78;65.16
48862;BME280;34681;49.188;-0.374;2023-03-15T05:46:18;101519.47;;;9.65;65.84
48862;BME280;34681;49.188;-0.374;2023-03-15T05:48:44;101524.06;;;9.75;65.27
48862;BME280;34681;49.188;-0.374;2023-03-15T05:51:09;101523.19;;;9.64;65.77
48862;BME280;34681;49.188;-0.374;2023-03-15T05:53:35;101520.59;;;9.73;65.25
48862;BME280;34681;49.188;-0.374;2023-03-15T05:56:00;101522.84;;;9.79;65.04
48862;BME280;34681;49.188;-0.374;2023-03-15T05:58:26;101519.84;;;9.71;65.16
48862;BME280;34681;49.188;-0.374;2023-03-15T06:00:51;101530.53;;;9.74;64.97
48862;BME280;34681;49.188;-0.374;2023-03-15T06:03:17;101523.69;;;9.69;65.13
48862;BME280;34681;49.188;-0.374;2023-03-15T06:05:42;101520.59;;;9.62;65.09
48862;BME280;34681;49.188;-0.374;2023-03-15T06:08:08;101528.78;;;9.62;65.30
48862;BME280;34681;49.188;-0.374;2023-03-15T06:10:33;101534.59;;;9.57;65.32
48862;BME280;34681;49.188;-0.374;2023-03-15T06:12:59;101535.06;;;9.51;65.42
48862;BME280;34681;49.188;-0.374;2023-03-15T06:15:25;101536.59;;;9.55;64.96
48862;BME280;34681;49.188;-0.374;2023-03-15T06:17:50;101539.56;;;9.52;65.09
48862;BME280;34681;49.188;-0.374;2023-03-15T06:20:16;101540.66;;;9.50;65.15
48862;BME280;34681;49.188;-0.374;2023-03-15T06:22:41;101543.16;;;9.53;65.01
48862;BME280;34681;49.188;-0.374;2023-03-15T06:25:08;101551.38;;;9.53;64.93
48862;BME280;34681;49.188;-0.374;2023-03-15T06:27:33;101560.06;;;9.58;64.71
48862;BME280;34681;49.188;-0.374;2023-03-15T06:29:59;101562.91;;;9.56;64.75
48862;BME280;34681;49.188;-0.374;2023-03-15T06:32:24;101562.78;;;9.58;64.93
48862;BME280;34681;49.188;-0.374;2023-03-15T06:34:50;101556.59;;;9.67;64.73
48862;BME280;34681;49.188;-0.374;2023-03-15T06:37:16;101561.22;;;9.78;64.46
48862;BME280;34681;49.188;-0.374;2023-03-15T06:39:41;101561.09;;;9.79;64.53
48862;BME280;34681;49.188;-0.374;2023-03-15T06:42:09;101569.19;;;9.92;64.14
48862;BME280;34681;49.188;-0.374;2023-03-15T06:44:37;101567.34;;;10.04;63.85
48862;BME280;34681;49.188;-0.374;2023-03-15T06:47:02;101565.97;;;10.21;63.87
48862;BME280;34681;49.188;-0.374;2023-03-15T06:49:28;101569.22;;;10.26;63.90
48862;BME280;34681;49.188;-0.374;2023-03-15T06:51:55;101574.44;;;10.40;63.57
48862;BME280;34681;49.188;-0.374;2023-03-15T06:54:23;101567.22;;;10.50;63.50
48862;BME280;34681;49.188;-0.374;2023-03-15T06:56:49;101578.16;;;10.50;63.52
48862;BME280;34681;49.188;-0.374;2023-03-15T06:59:15;101574.31;;;10.41;63.83
48862;BME280;34681;49.188;-0.374;2023-03-15T07:01:40;101566.94;;;10.64;63.32
48862;BME280;34681;49.188;-0.374;2023-03-15T07:04:06;101572.78;;;10.71;63.11
48862;BME280;34681;49.188;-0.374;2023-03-15T07:06:32;101569.78;;;10.85;62.98
48862;BME280;34681;49.188;-0.374;2023-03-15T07:08:58;101568.81;;;11.07;62.35
48862;BME280;34681;49.188;-0.374;2023-03-15T07:11:23;101569.25;;;11.23;61.92
48862;BME280;34681;49.188;-0.374;2023-03-15T07:13:49;101579.38;;;11.65;61.05
48862;BME280;34681;49.188;-0.374;2023-03-15T07:16:14;101573.25;;;12.54;59.16
48862;BME280;34681;49.188;-0.374;2023-03-15T07:18:40;101582.13;;;12.77;58.59
48862;BME280;34681;49.188;-0.374;2023-03-15T07:21:05;101589.84;;;13.12;57.92
48862;BME280;34681;49.188;-0.374;2023-03-15T07:23:32;101590.50;;;13.35;56.47
48862;BME280;34681;49.188;-0.374;2023-03-15T07:25:57;101594.69;;;13.30;56.59
48862;BME280;34681;49.188;-0.374;2023-03-15T07:28:24;101592.09;;;14.14;54.53
48862;BME280;34681;49.188;-0.374;2023-03-15T07:30:57;101600.06;;;14.91;52.44
48862;BME280;34681;49.188;-0.374;2023-03-15T07:33:25;101591.06;;;17.40;46.72
48862;BME280;34681;49.188;-0.374;2023-03-15T07:35:51;101600.28;;;19.09;43.62
48862;BME280;34681;49.188;-0.374;2023-03-15T07:38:22;101610.63;;;20.30;40.77
48862;BME280;34681;49.188;-0.374;2023-03-15T07:40:47;101605.91;;;20.15;40.38
48862;BME280;34681;49.188;-0.374;2023-03-15T07:43:12;101611.06;;;20.56;40.07
48862;BME280;34681;49.188;-0.374;2023-03-15T07:45:38;101604.84;;;20.16;40.89
48862;BME280;34681;49.188;-0.374;2023-03-15T07:48:03;101604.75;;;18.87;41.88
48862;BME280;34681;49.188;-0.374;2023-03-15T07:50:29;101609.09;;;17.77;43.93
48862;BME280;34681;49.188;-0.374;2023-03-15T07:52:54;101605.84;;;16.65;46.43
48862;BME280;34681;49.188;-0.374;2023-03-15T07:55:19;101616.44;;;16.17;48.27
48862;BME280;34681;49.188;-0.374;2023-03-15T07:57:45;101616.66;;;15.80;48.85
48862;BME280;34681;49.188;-0.374;2023-03-15T08:00:10;101613.66;;;15.38;50.11
48862;BME280;34681;49.188;-0.374;2023-03-15T08:02:37;101612.63;;;15.21;50.80
48862;BME280;34681;49.188;-0.374;2023-03-15T08:05:03;101622.63;;;14.77;51.20
48862;BME280;34681;49.188;-0.374;2023-03-15T08:07:29;101623.06;;;14.72;51.50
48862;BME280;34681;49.188;-0.374;2023-03-15T08:09:54;101623.75;;;14.56;52.17
48862;BME280;34681;49.188;-0.374;2023-03-15T08:12:22;101626.34;;;14.58;51.50
48862;BME280;34681;49.188;-0.374;2023-03-15T08:14:47;101629.09;;;14.58;51.08
48862;BME280;34681;49.188;-0.374;2023-03-15T08:17:12;101634.34;;;14.51;51.96
48862;BME280;34681;49.188;-0.374;2023-03-15T08:19:40;101624.78;;;14.46;52.10
48862;BME280;34681;49.188;-0.374;2023-03-15T08:22:05;101622.03;;;14.46;52.32
48862;BME280;34681;49.188;-0.374;2023-03-15T08:24:31;101624.28;;;14.60;52.16
48862;BME280;34681;49.188;-0.374;2023-03-15T08:26:56;101631.97;;;14.66;52.02
48862;BME280;34681;49.188;-0.374;2023-03-15T08:29:22;101617.75;;;14.88;51.75
48862;BME280;34681;49.188;-0.374;2023-03-15T08:31:47;101622.28;;;14.89;52.01
48862;BME280;34681;49.188;-0.374;2023-03-15T08:34:12;101625.44;;;15.12;51.55
48862;BME280;34681;49.188;-0.374;2023-03-15T08:36:38;101622.44;;;15.06;51.55
48862;BME280;34681;49.188;-0.374;2023-03-15T08:39:03;101621.13;;;15.28;51.49
48862;BME280;34681;49.188;-0.374;2023-03-15T08:41:30;101619.91;;;15.40;50.92
48862;BME280;34681;49.188;-0.374;2023-03-15T08:43:55;101616.28;;;15.39;50.86
48862;BME280;34681;49.188;-0.374;2023-03-15T08:46:21;101616.09;;;15.23;50.68
48862;BME280;34681;49.188;-0.374;2023-03-15T08:48:46;101615.88;;;15.34;50.70
48862;BME280;34681;49.188;-0.374;2023-03-15T08:51:11;101612.72;;;15.47;50.55
48862;BME280;34681;49.188;-0.374;2023-03-15T08:53:37;101607.91;;;15.49;50.44
48862;BME280;34681;49.188;-0.374;2023-03-15T08:56:03;101609.41;;;15.43;50.79
48862;BME280;34681;49.188;-0.374;2023-03-15T08:58:28;101615.34;;;15.03;51.47
48862;BME280;34681;49.188;-0.374;2023-03-15T09:00:54;101601.72;;;15.02;51.67
48862;BME280;34681;49.188;-0.374;2023-03-15T09:03:20;101610.06;;;14.92;52.03
48862;BME280;34681;49.188;-0.374;2023-03-15T09:05:46;101608.69;;;15.24;51.31
48862;BME280;34681;49.188;-0.374;2023-03-15T09:08:12;101618.63;;;15.16;52.00
48862;BME280;34681;49.188;-0.374;2023-03-15T09:10:38;101616.22;;;15.04;52.07
48862;BME280;34681;49.188;-0.374;2023-03-15T09:13:03;101610.13;;;15.28;51.91
48862;BME280;34681;49.188;-0.374;2023-03-15T09:15:29;101605.94;;;15.41;51.89
48862;BME280;34681;49.188;-0.374;2023-03-15T09:17:54;101610.66;;;15.85;51.14
48862;BME280;34681;49.188;-0.374;2023-03-15T09:20:20;101601.00;;;15.81;51.30
48862;BME280;34681;49.188;-0.374;2023-03-15T09:22:52;101592.88;;;16.05;50.39
48862;BME280;34681;49.188;-0.374;2023-03-15T09:25:19;101600.34;;;16.13;51.01
48862;BME280;34681;49.188;-0.374;2023-03-15T09:27:44;101598.19;;;16.24;51.05
48862;BME280;34681;49.188;-0.374;2023-03-15T09:30:10;101597.38;;;16.66;50.03
48862;BME280;34681;49.188;-0.374;2023-03-15T09:32:36;101599.88;;;16.51;49.93
48862;BME280;34681;49.188;-0.374;2023-03-15T09:35:07;101596.31;;;16.59;50.21
48862;BME280;34681;49.188;-0.374;2023-03-15T09:37:33;101594.22;;;16.61;49.76
48862;BME280;34681;49.188;-0.374;2023-03-15T09:39:59;101594.94;;;16.63;50.04
48862;BME280;34681;49.188;-0.374;2023-03-15T09:45:13;101598.03;;;16.94;50.24
48862;BME280;34681;49.188;-0.374;2023-03-15T09:47:45;101608.50;;;16.74;50.51
48862;BME280;34681;49.188;-0.374;2023-03-15T09:50:28;101610.47;;;16.90;50.00
48862;BME280;34681;49.188;-0.374;2023-03-15T09:53:02;101620.00;;;17.04;50.12
48862;BME280;34681;49.188;-0.374;2023-03-15T09:55:28;101616.41;;;17.20;49.66
48862;BME280;34681;49.188;-0.374;2023-03-15T09:57:57;101621.25;;;17.09;49.65
48862;BME280;34681;49.188;-0.374;2023-03-15T10:00:43;101625.03;;;17.08;49.59
48862;BME280;34681;49.188;-0.374;2023-03-15T10:03:25;101631.84;;;16.80;49.90
48862;BME280;34681;49.188;-0.374;2023-03-15T10:05:56;101623.22;;;16.83;49.42
48862;BME280;34681;49.188;-0.374;2023-03-15T10:08:23;101619.72;;;16.73;49.20
48862;BME280;34681;49.188;-0.374;2023-03-15T10:11:12;101615.81;;;16.92;48.85
48862;BME280;34681;49.188;-0.374;2023-03-15T10:19:16;101614.53;;;16.18;50.20
48862;BME280;34681;49.188;-0.374;2023-03-15T10:22:23;101610.38;;;16.40;49.91
48862;BME280;34681;49.188;-0.374;2023-03-15T10:25:23;101617.34;;;16.52;49.35
48862;BME280;34681;49.188;-0.374;2023-03-15T10:30:58;101621.91;;;16.09;48.83
48862;BME280;34681;49.188;-0.374;2023-03-15T10:33:30;101624.59;;;16.27;49.16
48862;BME280;34681;49.188;-0.374;2023-03-15T10:35:57;101627.31;;;16.45;49.14
48862;BME280;34681;49.188;-0.374;2023-03-15T10:38:24;101622.81;;;16.44;48.68
48862;BME280;34681;49.188;-0.374;2023-03-15T10:40:57;101618.75;;;16.56;48.06
48862;BME280;34681;49.188;-0.374;2023-03-15T10:43:24;101627.19;;;16.54;47.56
48862;BME280;34681;49.188;-0.374;2023-03-15T10:46:00;101618.28;;;16.35;47.69
48862;BME280;34681;49.188;-0.374;2023-03-15T10:48:28;101614.00;;;16.40;47.93
48862;BME280;34681;49.188;-0.374;2023-03-15T10:50:54;101611.81;;;16.52;47.31
48862;BME280;34681;49.188;-0.374;2023-03-15T10:53:20;101629.38;;;16.43;47.45
48862;BME280;34681;49.188;-0.374;2023-03-15T10:55:47;101626.34;;;16.28;47.17
48862;BME280;34681;49.188;-0.374;2023-03-15T10:58:38;101634.13;;;16.58;47.09
48862;BME280;34681;49.188;-0.374;2023-03-15T11:01:12;101633.91;;;16.52;47.30
48862;BME280;34681;49.188;-0.374;2023-03-15T11:03:39;101628.84;;;16.39;47.74
48862;BME280;34681;49.188;-0.374;2023-03-15T11:06:19;101625.25;;;16.47;47.64
48862;BME280;34681;49.188;-0.374;2023-03-15T11:08:45;101632.03;;;16.26;47.39
48862;BME280;34681;49.188;-0.374;2023-03-15T11:11:11;101623.97;;;16.33;46.69
48862;BME280;34681;49.188;-0.374;2023-03-15T11:13:38;101616.13;;;16.54;46.16
48862;BME280;34681;49.188;-0.374;2023-03-15T11:16:06;101617.88;;;16.55;46.15
48862;BME280;34681;49.188;-0.374;2023-03-15T11:19:16;101620.47;;;16.57;46.64
48862;BME280;34681;49.188;-0.374;2023-03-15T11:21:32;101607.19;;;16.95;45.98
48862;BME280;34681;49.188;-0.374;2023-03-15T11:24:03;101608.69;;;16.73;45.85
48862;BME280;34681;49.188;-0.374;2023-03-15T11:26:38;101616.63;;;16.50;46.73
48862;BME280;34681;49.188;-0.374;2023-03-15T11:29:08;101613.78;;;16.68;45.79
48862;BME280;34681;49.188;-0.374;2023-03-15T11:31:37;101608.91;;;16.96;44.94
48862;BME280;34681;49.188;-0.374;2023-03-15T11:34:07;101621.28;;;17.26;44.68
48862;BME280;34681;49.188;-0.374;2023-03-15T11:36:37;101620.41;;;17.17;44.38
48862;BME280;34681;49.188;-0.374;2023-03-15T11:39:04;101614.34;;;17.13;44.43
48862;BME280;34681;49.188;-0.374;2023-03-15T11:41:36;101624.59;;;17.54;44.04
48862;BME280;34681;49.188;-0.374;2023-03-15T11:46:47;101629.59;;;17.34;44.43
48862;BME280;34681;49.188;-0.374;2023-03-15T11:49:39;101616.28;;;17.37;43.89
48862;BME280;34681;49.188;-0.374;2023-03-15T11:52:07;101619.19;;;17.20;44.18
48862;BME280;34681;49.188;-0.374;2023-03-15T11:54:32;101608.13;;;17.28;44.20
48862;BME280;34681;49.188;-0.374;2023-03-15T11:57:02;101610.19;;;17.09;44.11
48862;BME280;34681;49.188;-0.374;2023-03-15T11:59:32;101599.22;;;16.83;44.36
48862;BME280;34681;49.188;-0.374;2023-03-15T12:04:49;101603.03;;;16.91;44.14
48862;BME280;34681;49.188;-0.374;2023-03-15T12:09:50;101607.59;;;17.08;44.69
48862;BME280;34681;49.188;-0.374;2023-03-15T12:17:57;101580.09;;;16.98;45.14
48862;BME280;34681;49.188;-0.374;2023-03-15T12:20:35;101587.72;;;17.12;44.61
48862;BME280;34681;49.188;-0.374;2023-03-15T12:25:42;101585.31;;;17.26;43.25
48862;BME280;34681;49.188;-0.374;2023-03-15T12:28:18;101588.13;;;17.42;42.93
48862;BME280;34681;49.188;-0.374;2023-03-15T12:30:52;101586.25;;;17.75;43.08
48862;BME280;34681;49.188;-0.374;2023-03-15T12:33:20;101585.03;;;17.86;42.83
48862;BME280;34681;49.188;-0.374;2023-03-15T12:35:47;101585.03;;;17.78;42.73
48862;BME280;34681;49.188;-0.374;2023-03-15T12:38:19;101573.19;;;18.33;41.97
48862;BME280;34681;49.188;-0.374;2023-03-15T12:40:50;101573.91;;;18.27;42.20
48862;BME280;34681;49.188;-0.374;2023-03-15T12:43:37;101570.00;;;18.52;41.45
48862;BME280;34681;49.188;-0.374;2023-03-15T12:46:03;101563.56;;;18.60;41.74
48862;BME280;34681;49.188;-0.374;2023-03-15T12:48:30;101561.63;;;18.76;41.76
48862;BME280;34681;49.188;-0.374;2023-03-15T12:50:58;101564.69;;;18.90;41.51
48862;BME280;34681;49.188;-0.374;2023-03-15T12:55:58;101556.13;;;18.68;40.09
48862;BME280;34681;49.188;-0.374;2023-03-15T12:58:36;101550.13;;;18.48;41.01
48862;BME280;34681;49.188;-0.374;2023-03-15T13:01:04;101542.41;;;18.75;40.63
48862;BME280;34681;49.188;-0.374;2023-03-15T13:03:33;101548.31;;;18.72;40.09
48862;BME280;34681;49.188;-0.374;2023-03-15T13:06:18;101538.81;;;18.66;40.10
48862;BME280;34681;49.188;-0.374;2023-03-15T13:11:27;101519.41;;;18.66;40.70
48862;BME280;34681;49.188;-0.374;2023-03-15T13:17:49;101514.91;;;18.65;39.48
48862;BME280;34681;49.188;-0.374;2023-03-15T13:23:15;101517.41;;;17.96;40.93
48862;BME280;34681;49.188;-0.374;2023-03-15T13:30:47;101493.22;;;18.30;40.30
48862;BME280;34681;49.188;-0.374;2023-03-15T13:35:59;101494.22;;;18.37;40.39
48862;BME280;34681;49.188;-0.374;2023-03-15T13:40:54;101494.22;;;18.37;40.30
48862;BME280;34681;49.188;-0.374;2023-03-15T13:43:22;101484.25;;;18.67;40.00
48862;BME280;34681;49.188;-0.374;2023-03-15T13:45:48;101477.13;;;18.64;40.01